sensor_id;sensor_type;location;lat;lon;timestamp;temperature;humidity
17659;DHT22;8948;51.534;8.262;2023-03-31T00:00:29;11.50;71.40
17659;DHT22;8948;51.534;8.262;2023-03-31T00:05:29;11.60;70.90
17659;DHT22;8948;51.534;8.262;2023-03-31T00:10:33;11.70;70.90
17659;DHT22;8948;51.534;8.262;2023-03-31T00:15:34;11.70;71.20
17659;DHT22;8948;51.534;8.262;2023-03-31T00:20:34;11.70;71.10
17659;DHT22;8948;51.534;8.262;2023-03-31T00:25:40;11.70;71.10
17659;DHT22;8948;51.534;8.262;2023-03-31T00:30:41;11.80;71.20
17659;DHT22;8948;51.534;8.262;2023-03-31T00:35:41;11.80;71.00
17659;DHT22;8948;51.534;8.262;2023-03-31T00:40:45;11.80;70.70
17659;DHT22;8948;51.534;8.262;2023-03-31T00:45:46;11.80;70.90
17659;DHT22;8948;51.534;8.262;2023-03-31T00:50:51;11.80;70.50
17659;DHT22;8948;51.534;8.262;2023-03-31T00:55:55;11.70;70.50
17659;DHT22;8948;51.534;8.262;2023-03-31T01:00:57;11.70;70.80
17659;DHT22;8948;51.534;8.262;2023-03-31T01:06:01;11.70;70.40
17659;DHT22;8948;51.534;8.262;2023-03-31T01:11:05;11.60;70.70
17659;DHT22;8948;51.534;8.262;2023-03-31T01:16:06;11.50;70.70
17659;DHT22;8948;51.534;8.262;2023-03-31T01:26:56;11.40;70.90
17659;DHT22;8948;51.534;8.262;2023-03-31T01:42:56;11.40;71.00
17659;DHT22;8948;51.534;8.262;2023-03-31T01:58:19;11.40;71.10
17659;DHT22;8948;51.534;8.262;2023-03-31T02:03:24;11.40;71.20
17659;DHT22;8948;51.534;8.262;2023-03-31T02:08:33;11.40;71.40
17659;DHT22;8948;51.534;8.262;2023-03-31T02:13:38;11.40;72.70
17659;DHT22;8948;51.534;8.262;2023-03-31T02:18:41;11.30;73.00
17659;DHT22;8948;51.534;8.262;2023-03-31T02:23:44;11.30;73.60
17659;DHT22;8948;51.534;8.262;2023-03-31T02:28:45;11.20;74.20
17659;DHT22;8948;51.534;8.262;2023-03-31T02:33:46;11.20;74.60
17659;DHT22;8948;51.534;8.262;2023-03-31T02:38:57;11.10;75.20
17659;DHT22;8948;51.534;8.262;2023-03-31T02:43:59;11.10;75.50
17659;DHT22;8948;51.534;8.262;2023-03-31T02:49:02;11.10;75.10
17659;DHT22;8948;51.534;8.262;2023-03-31T02:54:08;11.10;75.40
17659;DHT22;8948;51.534;8.262;2023-03-31T03:15:17;11.10;75.70
17659;DHT22;8948;51.534;8.262;2023-03-31T03:20:21;11.10;75.50
17659;DHT22;8948;51.534;8.262;2023-03-31T03:25:21;11.10;75.80
17659;DHT22;8948;51.534;8.262;2023-03-31T03:30:23;11.10;75.90
17659;DHT22;8948;51.534;8.262;2023-03-31T03:35:24;11.10;75.30
17659;DHT22;8948;51.534;8.262;2023-03-31T03:40:24;11.10;75.30
17659;DHT22;8948;51.534;8.262;2023-03-31T03:45:25;11.10;75.70
17659;DHT22;8948;51.534;8.262;2023-03-31T03:50:25;11.10;75.40
17659;DHT22;8948;51.534;8.262;2023-03-31T03:55:26;11.10;75.00
17659;DHT22;8948;51.534;8.262;2023-03-31T04:00:28;11.10;74.90
17659;DHT22;8948;51.534;8.262;2023-03-31T04:05:28;11.20;74.80
17659;DHT22;8948;51.534;8.262;2023-03-31T04:10:29;11.20;74.40
17659;DHT22;8948;51.534;8.262;2023-03-31T04:15:29;11.20;74.80
17659;DHT22;8948;51.534;8.262;2023-03-31T04:20:30;11.10;75.50
17659;DHT22;8948;51.534;8.262;2023-03-31T04:25:31;11.10;75.50
17659;DHT22;8948;51.534;8.262;2023-03-31T04:30:32;11.10;75.30
17659;DHT22;8948;51.534;8.262;2023-03-31T04:35:32;11.20;75.00
17659;DHT22;8948;51.534;8.262;2023-03-31T04:40:52;11.20;74.80
17659;DHT22;8948;51.534;8.262;2023-03-31T04:45:53;11.10;75.30
17659;DHT22;8948;51.534;8.262;2023-03-31T04:50:54;11.10;75.00
17659;DHT22;8948;51.534;8.262;2023-03-31T04:55:54;11.20;74.70
17659;DHT22;8948;51.534;8.262;2023-03-31T05:00:55;11.00;74.90
17659;DHT22;8948;51.534;8.262;2023-03-31T05:05:55;11.10;75.00
17659;DHT22;8948;51.534;8.262;2023-03-31T05:10:56;11.10;74.50
17659;DHT22;8948;51.534;8.262;2023-03-31T05:15:57;11.10;74.80
17659;DHT22;8948;51.534;8.262;2023-03-31T05:21:08;11.00;74.60
17659;DHT22;8948;51.534;8.262;2023-03-31T05:26:09;11.00;74.80
17659;DHT22;8948;51.534;8.262;2023-03-31T05:31:11;11.00;75.20
17659;DHT22;8948;51.534;8.262;2023-03-31T05:36:14;11.00;75.10
17659;DHT22;8948;51.534;8.262;2023-03-31T05:41:15;11.00;75.20
17659;DHT22;8948;51.534;8.262;2023-03-31T05:46:16;10.90;75.10
17659;DHT22;8948;51.534;8.262;2023-03-31T05:51:17;10.90;75.10
17659;DHT22;8948;51.534;8.262;2023-03-31T05:56:18;10.90;74.70
17659;DHT22;8948;51.534;8.262;2023-03-31T06:01:19;10.90;74.90
17659;DHT22;8948;51.534;8.262;2023-03-31T06:06:22;11.00;74.70
17659;DHT22;8948;51.534;8.262;2023-03-31T06:11:22;11.00;74.90
17659;DHT22;8948;51.534;8.262;2023-03-31T06:16:23;11.00;74.30
17659;DHT22;8948;51.534;8.262;2023-03-31T06:21:23;11.00;73.90
17659;DHT22;8948;51.534;8.262;2023-03-31T06:26:24;11.00;73.70
17659;DHT22;8948;51.534;8.262;2023-03-31T06:31:25;11.00;73.70
17659;DHT22;8948;51.534;8.262;2023-03-31T06:36:26;11.00;73.50
17659;DHT22;8948;51.534;8.262;2023-03-31T06:41:26;11.10;73.30
17659;DHT22;8948;51.534;8.262;2023-03-31T06:46:27;11.10;73.30
17659;DHT22;8948;51.534;8.262;2023-03-31T06:51:28;11.10;72.80
17659;DHT22;8948;51.534;8.262;2023-03-31T06:56:28;11.20;72.80
17659;DHT22;8948;51.534;8.262;2023-03-31T07:01:29;11.20;72.10
17659;DHT22;8948;51.534;8.262;2023-03-31T07:06:30;11.20;72.10
17659;DHT22;8948;51.534;8.262;2023-03-31T07:11:31;11.20;72.30
17659;DHT22;8948;51.534;8.262;2023-03-31T07:16:32;11.20;72.10
17659;DHT22;8948;51.534;8.262;2023-03-31T07:21:33;11.20;71.70
17659;DHT22;8948;51.534;8.262;2023-03-31T07:26:33;11.30;71.60
17659;DHT22;8948;51.534;8.262;2023-03-31T07:31:34;11.30;70.60
17659;DHT22;8948;51.534;8.262;2023-03-31T07:36:35;11.30;71.20
17659;DHT22;8948;51.534;8.262;2023-03-31T07:41:35;11.40;70.70
17659;DHT22;8948;51.534;8.262;2023-03-31T07:46:36;11.40;71.50
17659;DHT22;8948;51.534;8.262;2023-03-31T07:51:38;11.30;71.50
17659;DHT22;8948;51.534;8.262;2023-03-31T07:56:39;11.20;72.30
17659;DHT22;8948;51.534;8.262;2023-03-31T08:01:39;11.20;72.40
17659;DHT22;8948;51.534;8.262;2023-03-31T08:06:40;11.10;73.00
17659;DHT22;8948;51.534;8.262;2023-03-31T08:11:41;11.00;73.70
17659;DHT22;8948;51.534;8.262;2023-03-31T08:16:41;11.00;74.20
17659;DHT22;8948;51.534;8.262;2023-03-31T08:21:42;10.90;73.80
17659;DHT22;8948;51.534;8.262;2023-03-31T08:26:43;10.80;74.60
17659;DHT22;8948;51.534;8.262;2023-03-31T08:31:43;10.70;74.70
17659;DHT22;8948;51.534;8.262;2023-03-31T08:36:44;10.60;75.30
17659;DHT22;8948;51.534;8.262;2023-03-31T08:42:00;10.60;75.70
17659;DHT22;8948;51.534;8.262;2023-03-31T08:47:03;10.60;76.10
17659;DHT22;8948;51.534;8.262;2023-03-31T08:52:08;10.70;75.80
17659;DHT22;8948;51.534;8.262;2023-03-31T08:57:16;10.80;75.50
17659;DHT22;8948;51.534;8.262;2023-03-31T09:02:41;11.00;76.00
17659;DHT22;8948;51.534;8.262;2023-03-31T09:13:20;11.70;73.70
17659;DHT22;8948;51.534;8.262;2023-03-31T09:18:31;11.90;73.60
17659;DHT22;8948;51.534;8.262;2023-03-31T09:23:43;12.10;72.60
17659;DHT22;8948;51.534;8.262;2023-03-31T09:28:45;12.30;71.20
17659;DHT22;8948;51.534;8.262;2023-03-31T09:33:47;12.50;71.80
17659;DHT22;8948;51.534;8.262;2023-03-31T09:38:50;12.70;71.80
17659;DHT22;8948;51.534;8.262;2023-03-31T09:43:51;12.80;70.30
17659;DHT22;8948;51.534;8.262;2023-03-31T09:49:01;12.90;70.20
17659;DHT22;8948;51.534;8.262;2023-03-31T09:54:22;12.90;70.80
17659;DHT22;8948;51.534;8.262;2023-03-31T09:59:34;12.80;70.20
17659;DHT22;8948;51.534;8.262;2023-03-31T10:04:44;12.80;70.80
17659;DHT22;8948;51.534;8.262;2023-03-31T10:09:45;13.00;70.50
17659;DHT22;8948;51.534;8.262;2023-03-31T10:14:48;13.20;68.60
17659;DHT22;8948;51.534;8.262;2023-03-31T10:20:04;13.20;69.10
17659;DHT22;8948;51.534;8.262;2023-03-31T10:25:13;13.10;68.50
17659;DHT22;8948;51.534;8.262;2023-03-31T10:30:21;13.10;70.40
17659;DHT22;8948;51.534;8.262;2023-03-31T10:35:23;13.70;69.90
17659;DHT22;8948;51.534;8.262;2023-03-31T10:40:30;14.40;67.50
17659;DHT22;8948;51.534;8.262;2023-03-31T10:45:43;14.60;66.50
17659;DHT22;8948;51.534;8.262;2023-03-31T10:50:47;14.70;65.20
17659;DHT22;8948;51.534;8.262;2023-03-31T11:12:20;15.30;63.30
17659;DHT22;8948;51.534;8.262;2023-03-31T11:17:48;14.60;62.30
17659;DHT22;8948;51.534;8.262;2023-03-31T11:23:01;14.30;62.60
17659;DHT22;8948;51.534;8.262;2023-03-31T11:44:00;14.40;60.90
17659;DHT22;8948;51.534;8.262;2023-03-31T11:49:09;14.20;62.40
17659;DHT22;8948;51.534;8.262;2023-03-31T11:54:22;14.10;62.80
17659;DHT22;8948;51.534;8.262;2023-03-31T11:59:25;13.70;60.60
17659;DHT22;8948;51.534;8.262;2023-03-31T12:04:41;13.20;58.80
17659;DHT22;8948;51.534;8.262;2023-03-31T12:09:50;12.80;63.60
17659;DHT22;8948;51.534;8.262;2023-03-31T12:20:23;12.90;66.60
17659;DHT22;8948;51.534;8.262;2023-03-31T12:25:39;13.10;66.60
17659;DHT22;8948;51.534;8.262;2023-03-31T12:30:42;13.20;66.40
17659;DHT22;8948;51.534;8.262;2023-03-31T12:46:28;11.80;70.40
17659;DHT22;8948;51.534;8.262;2023-03-31T12:51:59;11.40;71.70
17659;DHT22;8948;51.534;8.262;2023-03-31T12:57:02;11.20;72.00
17659;DHT22;8948;51.534;8.262;2023-03-31T13:12:27;11.50;70.80
17659;DHT22;8948;51.534;8.262;2023-03-31T13:17:35;11.70;71.30
17659;DHT22;8948;51.534;8.262;2023-03-31T13:22:37;11.90;71.40
17659;DHT22;8948;51.534;8.262;2023-03-31T13:27:48;12.40;71.50
17659;DHT22;8948;51.534;8.262;2023-03-31T13:33:13;13.00;68.70
17659;DHT22;8948;51.534;8.262;2023-03-31T13:49:29;13.10;68.20
17659;DHT22;8948;51.534;8.262;2023-03-31T14:05:27;13.20;69.00
17659;DHT22;8948;51.534;8.262;2023-03-31T14:10:36;13.30;68.80
17659;DHT22;8948;51.534;8.262;2023-03-31T14:15:41;13.10;69.40
17659;DHT22;8948;51.534;8.262;2023-03-31T14:20:54;13.10;70.20
17659;DHT22;8948;51.534;8.262;2023-03-31T14:37:24;13.40;69.70
17659;DHT22;8948;51.534;8.262;2023-03-31T14:47:28;13.80;69.00
17659;DHT22;8948;51.534;8.262;2023-03-31T14:52:30;13.90;67.90
17659;DHT22;8948;51.534;8.262;2023-03-31T14:57:34;14.00;67.50
17659;DHT22;8948;51.534;8.262;2023-03-31T15:02:40;14.00;67.00
17659;DHT22;8948;51.534;8.262;2023-03-31T15:07:41;13.90;67.50
17659;DHT22;8948;51.534;8.262;2023-03-31T15:12:42;14.00;66.80
17659;DHT22;8948;51.534;8.262;2023-03-31T15:17:45;13.90;67.40
17659;DHT22;8948;51.534;8.262;2023-03-31T15:22:46;13.90;68.10
17659;DHT22;8948;51.534;8.262;2023-03-31T15:27:51;13.80;66.80
17659;DHT22;8948;51.534;8.262;2023-03-31T15:32:54;13.90;67.40
17659;DHT22;8948;51.534;8.262;2023-03-31T15:37:56;13.90;66.80
17659;DHT22;8948;51.534;8.262;2023-03-31T15:43:28;13.90;66.00
17659;DHT22;8948;51.534;8.262;2023-03-31T15:48:33;14.00;66.20
17659;DHT22;8948;51.534;8.262;2023-03-31T15:53:37;14.10;65.10
17659;DHT22;8948;51.534;8.262;2023-03-31T15:58:52;14.20;64.50
17659;DHT22;8948;51.534;8.262;2023-03-31T16:03:53;14.10;64.90
17659;DHT22;8948;51.534;8.262;2023-03-31T16:09:01;14.00;63.90
17659;DHT22;8948;51.534;8.262;2023-03-31T16:14:41;13.90;63.60
17659;DHT22;8948;51.534;8.262;2023-03-31T16:19:45;13.80;64.60
17659;DHT22;8948;51.534;8.262;2023-03-31T16:24:47;13.70;65.30
17659;DHT22;8948;51.534;8.262;2023-03-31T16:29:48;13.60;64.30
17659;DHT22;8948;51.534;8.262;2023-03-31T16:35:00;13.50;64.80
17659;DHT22;8948;51.534;8.262;2023-03-31T16:40:02;13.50;65.00
17659;DHT22;8948;51.534;8.262;2023-03-31T16:45:04;13.40;66.20
17659;DHT22;8948;51.534;8.262;2023-03-31T16:50:05;13.30;66.70
17659;DHT22;8948;51.534;8.262;2023-03-31T16:55:06;13.10;67.40
17659;DHT22;8948;51.534;8.262;2023-03-31T17:00:07;13.00;68.60
17659;DHT22;8948;51.534;8.262;2023-03-31T17:05:08;12.80;69.70
17659;DHT22;8948;51.534;8.262;2023-03-31T17:10:09;12.40;69.20
17659;DHT22;8948;51.534;8.262;2023-03-31T17:15:10;12.00;70.70
17659;DHT22;8948;51.534;8.262;2023-03-31T17:20:11;11.80;70.40
17659;DHT22;8948;51.534;8.262;2023-03-31T17:25:12;11.80;71.40
17659;DHT22;8948;51.534;8.262;2023-03-31T17:30:14;11.70;72.30
17659;DHT22;8948;51.534;8.262;2023-03-31T17:35:15;11.80;71.30
17659;DHT22;8948;51.534;8.262;2023-03-31T17:40:23;11.80;71.20
17659;DHT22;8948;51.534;8.262;2023-03-31T17:45:24;11.70;71.10
17659;DHT22;8948;51.534;8.262;2023-03-31T17:50:25;11.70;70.90
17659;DHT22;8948;51.534;8.262;2023-03-31T17:55:26;11.70;71.10
17659;DHT22;8948;51.534;8.262;2023-03-31T18:00:27;11.80;71.60
17659;DHT22;8948;51.534;8.262;2023-03-31T18:05:27;11.80;71.60
17659;DHT22;8948;51.534;8.262;2023-03-31T18:10:29;11.70;71.50
17659;DHT22;8948;51.534;8.262;2023-03-31T18:15:30;11.70;71.90
17659;DHT22;8948;51.534;8.262;2023-03-31T18:20:31;11.70;71.30
17659;DHT22;8948;51.534;8.262;2023-03-31T18:25:32;11.60;70.90
17659;DHT22;8948;51.534;8.262;2023-03-31T18:30:33;11.70;71.20
17659;DHT22;8948;51.534;8.262;2023-03-31T18:35:33;11.70;71.30
17659;DHT22;8948;51.534;8.262;2023-03-31T18:40:34;11.70;71.20
17659;DHT22;8948;51.534;8.262;2023-03-31T18:45:35;11.70;71.40
17659;DHT22;8948;51.534;8.262;2023-03-31T18:50:37;11.60;72.50
17659;DHT22;8948;51.534;8.262;2023-03-31T18:55:38;11.70;71.80
17659;DHT22;8948;51.534;8.262;2023-03-31T19:00:39;11.70;72.20
17659;DHT22;8948;51.534;8.262;2023-03-31T19:05:40;11.60;72.10
17659;DHT22;8948;51.534;8.262;2023-03-31T19:10:41;11.60;72.10
17659;DHT22;8948;51.534;8.262;2023-03-31T19:15:41;11.50;72.20
17659;DHT22;8948;51.534;8.262;2023-03-31T19:20:42;11.50;72.40
17659;DHT22;8948;51.534;8.262;2023-03-31T19:25:45;11.50;72.40
17659;DHT22;8948;51.534;8.262;2023-03-31T19:30:50;11.50;72.70
17659;DHT22;8948;51.534;8.262;2023-03-31T19:35:51;11.40;73.10
17659;DHT22;8948;51.534;8.262;2023-03-31T19:40:52;11.40;73.00
17659;DHT22;8948;51.534;8.262;2023-03-31T19:45:53;11.40;73.60
17659;DHT22;8948;51.534;8.262;2023-03-31T19:50:56;11.40;73.40
17659;DHT22;8948;51.534;8.262;2023-03-31T19:56:07;11.40;73.40
17659;DHT22;8948;51.534;8.262;2023-03-31T20:01:18;11.40;73.70
17659;DHT22;8948;51.534;8.262;2023-03-31T20:06:24;11.30;73.60
17659;DHT22;8948;51.534;8.262;2023-03-31T20:11:26;11.30;73.70
17659;DHT22;8948;51.534;8.262;2023-03-31T20:16:28;11.20;73.60
17659;DHT22;8948;51.534;8.262;2023-03-31T20:21:31;11.20;74.30
17659;DHT22;8948;51.534;8.262;2023-03-31T20:26:33;11.20;73.60
17659;DHT22;8948;51.534;8.262;2023-03-31T20:31:35;11.20;74.20
17659;DHT22;8948;51.534;8.262;2023-03-31T20:36:37;11.20;74.20
17659;DHT22;8948;51.534;8.262;2023-03-31T20:41:38;11.20;73.30
17659;DHT22;8948;51.534;8.262;2023-03-31T20:46:40;11.20;73.20
17659;DHT22;8948;51.534;8.262;2023-03-31T20:51:41;11.10;73.20
17659;DHT22;8948;51.534;8.262;2023-03-31T20:56:41;11.10;73.40
17659;DHT22;8948;51.534;8.262;2023-03-31T21:01:42;11.00;73.50
17659;DHT22;8948;51.534;8.262;2023-03-31T21:06:46;11.00;73.30
17659;DHT22;8948;51.534;8.262;2023-03-31T21:11:46;11.00;73.20
17659;DHT22;8948;51.534;8.262;2023-03-31T21:16:47;11.00;73.30
17659;DHT22;8948;51.534;8.262;2023-03-31T21:21:47;11.00;73.30
17659;DHT22;8948;51.534;8.262;2023-03-31T21:26:48;11.00;73.20
17659;DHT22;8948;51.534;8.262;2023-03-31T21:31:49;11.00;73.10
17659;DHT22;8948;51.534;8.262;2023-03-31T21:36:49;10.90;73.70
17659;DHT22;8948;51.534;8.262;2023-03-31T21:41:50;10.90;73.80
17659;DHT22;8948;51.534;8.262;2023-03-31T21:46:51;10.80;74.30
17659;DHT22;8948;51.534;8.262;2023-03-31T21:51:52;10.70;74.20
17659;DHT22;8948;51.534;8.262;2023-03-31T21:56:54;10.70;74.70
17659;DHT22;8948;51.534;8.262;2023-03-31T22:01:54;10.70;74.20
17659;DHT22;8948;51.534;8.262;2023-03-31T22:06:56;10.60;74.60
17659;DHT22;8948;51.534;8.262;2023-03-31T22:11:57;10.70;74.10
17659;DHT22;8948;51.534;8.262;2023-03-31T22:16:57;10.60;74.50
17659;DHT22;8948;51.534;8.262;2023-03-31T22:21:58;10.60;74.50
17659;DHT22;8948;51.534;8.262;2023-03-31T22:27:00;10.60;74.40
17659;DHT22;8948;51.534;8.262;2023-03-31T22:32:01;10.60;74.50
17659;DHT22;8948;51.534;8.262;2023-03-31T22:37:01;10.50;74.40
17659;DHT22;8948;51.534;8.262;2023-03-31T22:42:02;10.50;74.00
17659;DHT22;8948;51.534;8.262;2023-03-31T22:47:03;10.50;74.30
17659;DHT22;8948;51.534;8.262;2023-03-31T22:52:04;10.50;74.40
17659;DHT22;8948;51.534;8.262;2023-03-31T22:57:04;10.50;74.40
17659;DHT22;8948;51.534;8.262;2023-03-31T23:02:05;10.40;74.50
17659;DHT22;8948;51.534;8.262;2023-03-31T23:07:06;10.30;74.60
17659;DHT22;8948;51.534;8.262;2023-03-31T23:12:06;10.30;74.90
17659;DHT22;8948;51.534;8.262;2023-03-31T23:17:07;10.40;74.60
17659;DHT22;8948;51.534;8.262;2023-03-31T23:22:08;10.30;74.80
17659;DHT22;8948;51.534;8.262;2023-03-31T23:27:08;10.40;75.00
17659;DHT22;8948;51.534;8.262;2023-03-31T23:32:09;10.40;74.50
17659;DHT22;8948;51.534;8.262;2023-03-31T23:37:12;10.40;74.80
17659;DHT22;8948;51.534;8.262;2023-03-31T23:42:13;10.40;74.90
17659;DHT22;8948;51.534;8.262;2023-03-31T23:47:18;10.30;74.90
17659;DHT22;8948;51.534;8.262;2023-03-31T23:52:19;10.40;74.60
17659;DHT22;8948;51.534;8.262;2023-03-31T23:57:20;10.30;74.80
